This is the latest recevied weather packets stored in our database for station/object K6QM-1. If no packets are shown the sender has not sent any weather packets the latest 10 day(s).
| Time | Temp. | Humidity | Pressure | Rain* | Wind** | Luminosity | Snow |
|---|---|---|---|---|---|---|---|
| 1777839943 | 22.22° C | 46% | 1015.9 hPa | - | - | - | - |
| 1777837243 | 21.11° C | 49% | 1016.4 hPa | - | - | - | - |
| 1777833643 | 21.67° C | 49% | 1016.3 hPa | - | - | - | - |
| 1777832742 | 21.67° C | 50% | 1016.3 hPa | - | - | - | - |
| 1777831842 | 21.11° C | 51% | 1016.2 hPa | - | - | - | - |
| 1777830942 | 18.33° C | 53% | 1013.2 hPa | - | - | - | - |
| 1777829142 | 20.56° C | 54% | 1016.5 hPa | - | - | - | - |
| 1777826442 | 19.44° C | 57% | 1016.4 hPa | - | - | - | - |
| 1777825541 | 19.44° C | 58% | 1016.3 hPa | - | - | - | - |
| 1777824642 | 18.89° C | 59% | 1016.2 hPa | - | - | - | - |
| 1777821941 | 17.78° C | 62% | 1016.2 hPa | - | - | - | - |
| 1777821042 | 17.78° C | 62% | 1016.1 hPa | - | - | - | - |
| 1777819241 | 17.22° C | 63% | 1016.3 hPa | - | - | - | - |
| 1777817441 | 17.22° C | 64% | 1016.1 hPa | - | - | - | - |
| 1777813841 | 16.67° C | 67% | 1015.2 hPa | - | - | - | - |
| 1777809340 | 16.67° C | 69% | 1014.7 hPa | - | - | - | - |
| 1777808440 | 16.67° C | 69% | 1014.8 hPa | - | - | - | - |
| 1777807540 | 16.67° C | 69% | 1014.7 hPa | - | - | - | - |
| 1777806640 | 16.67° C | 68% | 1014.6 hPa | - | - | - | - |
| 1777803040 | 17.22° C | 66% | 1014.7 hPa | - | - | - | - |
| 1777801240 | 17.78° C | 62% | 1014.6 hPa | - | - | - | - |
| 1777800339 | 17.22° C | 64% | 1014.9 hPa | - | - | - | - |
| 1777799439 | 17.78° C | 62% | 1014.7 hPa | - | - | - | - |
| 1777798539 | 17.22° C | 64% | 1015 hPa | - | - | - | - |
| 1777797640 | 17.78° C | 63% | 1015.1 hPa | - | - | - | - |
* Rain since midnight (hover to see other rain measurements)
** Current wind speed in m/s (hover to see current wind gust speed)